createdAt,value
2023-12-28T00:00:14.849Z,66.54
2023-12-28T00:01:14.661Z,68.06
2023-12-28T00:02:14.522Z,64.79
2023-12-28T00:03:14.421Z,66.32
2023-12-28T00:04:14.213Z,66.11
2023-12-28T00:05:13.995Z,64.02
2023-12-28T00:06:13.822Z,64.42
2023-12-28T00:56:28.165Z,66.61
2023-12-28T00:57:05.268Z,68.87
2023-12-28T00:58:05.126Z,73.20
2023-12-28T00:59:04.931Z,96.42
2023-12-28T01:00:04.778Z,127.18
2023-12-28T01:01:04.779Z,163.57
2023-12-28T01:02:04.401Z,70.50
2023-12-28T01:03:04.332Z,69.64
2023-12-28T01:04:04.212Z,82.51
2023-12-28T01:05:03.907Z,101.13
2023-12-28T01:06:03.764Z,123.30
2023-12-28T01:07:03.681Z,145.41
2023-12-28T01:08:03.513Z,143.69
2023-12-28T01:09:03.234Z,138.60
2023-12-28T01:10:03.069Z,133.25
2023-12-28T01:11:02.919Z,126.63
2023-12-28T01:12:02.741Z,119.80
2023-12-28T01:13:02.558Z,115.93
2023-12-28T01:14:02.377Z,115.95
2023-12-28T01:15:01.220Z,108.40
2023-12-28T01:16:02.111Z,105.81
2023-12-28T01:17:01.861Z,103.96
2023-12-28T01:18:01.031Z,103.98
2023-12-28T01:19:01.695Z,100.35
2023-12-28T01:20:01.477Z,98.94
2023-12-28T01:21:01.194Z,96.60
2023-12-28T01:22:01.018Z,92.81
2023-12-28T01:23:00.863Z,93.39
2023-12-28T01:24:00.707Z,88.88
2023-12-28T01:25:00.525Z,88.22
2023-12-28T01:26:00.340Z,86.57
2023-12-28T01:27:00.511Z,89.40
2023-12-28T01:28:00.353Z,84.46
2023-12-28T01:28:59.854Z,82.85
2023-12-28T01:29:59.668Z,81.31
2023-12-28T01:30:59.598Z,81.40
2023-12-28T01:31:59.321Z,81.10
2023-12-28T01:32:59.196Z,81.15
2023-12-28T01:33:59.085Z,81.76
2023-12-28T01:34:59.147Z,77.18
2023-12-28T01:35:58.650Z,77.75
2023-12-28T01:36:58.521Z,77.32
2023-12-28T01:37:58.598Z,75.86
2023-12-28T01:38:58.151Z,77.50
2023-12-28T01:39:58.046Z,76.35
2023-12-28T01:40:57.819Z,76.27
2023-12-28T01:41:57.648Z,75.60
2023-12-28T01:42:57.568Z,74.13
2023-12-28T01:43:57.351Z,72.10
2023-12-28T01:44:57.134Z,72.74
2023-12-28T01:45:57.015Z,72.87
2023-12-28T01:46:56.793Z,73.34
2023-12-28T01:47:57.088Z,72.85
2023-12-28T01:48:56.556Z,73.37
2023-12-28T01:49:55.406Z,73.15
2023-12-28T01:50:56.136Z,75.20
2023-12-28T01:51:55.095Z,71.67
2023-12-28T01:52:56.417Z,71.75
2023-12-28T01:53:55.641Z,71.89
2023-12-28T01:54:54.490Z,71.77
2023-12-28T01:55:55.305Z,72.01
2023-12-28T01:56:55.131Z,71.99
2023-12-28T01:57:55.128Z,72.43
2023-12-28T01:58:54.791Z,71.03
2023-12-28T01:59:54.646Z,72.31
2023-12-28T02:00:54.513Z,73.13
2023-12-28T02:01:54.293Z,70.34
2023-12-28T02:02:54.730Z,70.04
2023-12-28T02:03:53.089Z,70.08
2023-12-28T02:04:53.779Z,70.19
2023-12-28T02:05:52.641Z,69.77
2023-12-28T02:06:53.468Z,71.00
2023-12-28T02:07:53.267Z,69.41
2023-12-28T02:08:52.111Z,69.55
2023-12-28T02:09:52.983Z,70.30
2023-12-28T02:10:52.751Z,70.37
2023-12-28T02:11:51.578Z,69.28
2023-12-28T02:12:53.258Z,68.94
2023-12-28T02:13:52.288Z,69.86
2023-12-28T02:14:52.080Z,67.63
2023-12-28T02:15:52.052Z,67.38
2023-12-28T02:16:51.725Z,66.81
2023-12-28T02:17:51.581Z,67.94
2023-12-28T02:18:51.441Z,68.94
2023-12-28T02:19:51.234Z,68.60
2023-12-28T02:20:51.065Z,66.90
2023-12-28T02:21:50.960Z,67.98
2023-12-28T02:22:50.731Z,68.20
2023-12-28T02:23:50.568Z,66.63
2023-12-28T02:24:50.453Z,65.19
2023-12-28T02:25:50.214Z,65.42
2023-12-28T02:26:50.056Z,64.98
2023-12-28T02:27:50.079Z,67.01
2023-12-28T02:28:49.719Z,64.86
2023-12-28T02:29:49.543Z,65.41
2023-12-28T02:30:49.488Z,65.47
2023-12-28T02:31:49.277Z,65.85
2023-12-28T02:32:49.153Z,65.64
2023-12-28T02:33:49.063Z,66.86
2023-12-28T02:34:47.731Z,65.54
2023-12-28T02:35:48.543Z,65.78
2023-12-28T02:36:48.465Z,66.58
2023-12-28T02:37:48.217Z,66.25
2023-12-28T02:38:48.056Z,65.86
2023-12-28T02:39:46.888Z,66.67
2023-12-28T02:40:47.720Z,65.02
2023-12-28T02:41:47.530Z,66.19
2023-12-28T02:42:47.420Z,67.41
2023-12-28T02:43:47.190Z,67.96
2023-12-28T02:44:46.018Z,62.39
2023-12-28T02:45:46.867Z,64.99
2023-12-28T02:46:46.690Z,64.39
2023-12-28T02:47:46.548Z,63.97
2023-12-28T02:48:46.561Z,66.22
2023-12-28T02:49:46.321Z,66.20
2023-12-28T02:50:45.985Z,64.50
2023-12-28T02:51:46.131Z,65.01
2023-12-28T02:52:45.876Z,65.45
2023-12-28T02:53:45.707Z,64.72
2023-12-28T02:54:45.589Z,63.25
2023-12-28T02:55:45.373Z,63.59
2023-12-28T02:56:45.208Z,65.80
2023-12-28T02:57:44.065Z,65.83
2023-12-28T02:58:44.875Z,65.35
2023-12-28T02:59:44.703Z,65.85
2023-12-28T03:00:44.625Z,65.04
2023-12-28T03:01:43.403Z,64.97
2023-12-28T03:02:45.216Z,66.08
2023-12-28T03:03:44.142Z,65.83
2023-12-28T03:04:43.034Z,65.11
2023-12-28T03:05:43.910Z,65.88
2023-12-28T03:06:43.759Z,65.11
2023-12-28T03:07:43.569Z,63.08
2023-12-28T03:08:43.343Z,61.91
2023-12-28T03:09:43.234Z,64.52
2023-12-28T03:10:42.077Z,63.86
2023-12-28T03:11:42.829Z,62.99
2023-12-28T03:12:42.732Z,63.10
2023-12-28T03:13:42.498Z,66.05
2023-12-28T03:14:42.319Z,63.42
2023-12-28T03:15:42.250Z,64.29
2023-12-28T03:16:41.970Z,67.19
2023-12-28T03:17:42.081Z,63.53
2023-12-28T03:18:41.778Z,63.15
2023-12-28T03:19:41.617Z,63.39
2023-12-28T03:20:41.277Z,62.88
2023-12-28T03:21:41.164Z,63.91
2023-12-28T03:22:40.938Z,62.67
2023-12-28T03:23:40.782Z,65.48
2023-12-28T03:24:40.615Z,63.50
2023-12-28T03:25:41.239Z,62.80
2023-12-28T03:26:39.481Z,62.91
2023-12-28T03:27:40.329Z,62.99
2023-12-28T03:28:40.243Z,63.21
2023-12-28T03:29:39.964Z,62.97
2023-12-28T03:30:39.941Z,63.34
2023-12-28T03:31:39.747Z,64.01
2023-12-28T03:32:39.471Z,64.99
2023-12-28T03:33:39.320Z,65.98
2023-12-28T03:34:39.200Z,61.66
2023-12-28T03:35:38.952Z,63.66
2023-12-28T03:36:38.797Z,66.95
2023-12-28T03:37:38.595Z,66.54
2023-12-28T03:38:38.439Z,64.30
2023-12-28T03:39:38.316Z,62.64
2023-12-28T03:40:38.094Z,64.45
2023-12-28T03:41:36.924Z,62.83
2023-12-28T03:42:37.798Z,63.91
2023-12-28T03:43:37.600Z,64.43
2023-12-28T03:44:37.441Z,65.84
2023-12-28T03:45:37.291Z,62.32
2023-12-28T03:46:37.091Z,61.90
2023-12-28T03:47:36.959Z,63.76
2023-12-28T03:48:36.868Z,65.04
2023-12-28T03:49:36.700Z,61.09
2023-12-28T03:50:36.428Z,62.61
2023-12-28T03:51:36.310Z,62.72
2023-12-28T03:52:36.109Z,62.74
2023-12-28T03:53:35.928Z,63.34
2023-12-28T03:54:35.801Z,62.76
2023-12-28T03:55:35.603Z,61.78
2023-12-28T03:56:35.436Z,62.15
2023-12-28T03:57:35.336Z,64.51
2023-12-28T03:58:35.121Z,62.19
2023-12-28T03:59:34.961Z,62.47
2023-12-28T04:00:34.814Z,59.83
2023-12-28T04:01:34.644Z,64.30
2023-12-28T04:02:34.421Z,62.30
2023-12-28T04:03:34.423Z,60.64
2023-12-28T04:04:34.171Z,61.90
2023-12-28T04:05:33.982Z,62.94
2023-12-28T04:06:34.814Z,64.55
2023-12-28T04:07:33.625Z,62.95
2023-12-28T04:08:33.561Z,62.35
2023-12-28T04:09:33.297Z,64.52
2023-12-28T04:10:33.306Z,60.66
2023-12-28T04:11:32.934Z,61.94
2023-12-28T04:12:32.830Z,62.07
2023-12-28T04:13:32.592Z,59.80
2023-12-28T04:14:32.424Z,61.83
2023-12-28T04:15:31.341Z,64.45
2023-12-28T04:16:32.085Z,60.77
2023-12-28T04:17:31.936Z,62.42
2023-12-28T04:18:31.899Z,62.76
2023-12-28T04:19:31.627Z,64.92
2023-12-28T04:20:31.411Z,62.60
2023-12-28T04:21:31.272Z,65.19
2023-12-28T04:22:31.094Z,62.01
2023-12-28T04:23:30.933Z,62.35
2023-12-28T04:24:30.770Z,62.48
2023-12-28T04:25:30.604Z,62.56
2023-12-28T04:26:30.412Z,63.49
2023-12-28T04:27:30.253Z,63.24
2023-12-28T04:28:30.102Z,61.27
2023-12-28T04:29:30.054Z,64.72
2023-12-28T04:30:29.784Z,64.07
2023-12-28T04:31:29.635Z,63.60
2023-12-28T04:32:29.405Z,61.81
2023-12-28T04:33:29.447Z,62.73
2023-12-28T04:34:29.085Z,64.39
2023-12-28T04:35:28.888Z,63.13
2023-12-28T04:36:28.737Z,65.45
2023-12-28T04:37:28.557Z,61.89
2023-12-28T04:38:28.378Z,62.72
2023-12-28T04:39:28.260Z,61.66
2023-12-28T04:40:28.059Z,60.97
2023-12-28T04:41:27.870Z,61.42
2023-12-28T04:42:27.749Z,61.76
2023-12-28T04:43:27.548Z,61.81
2023-12-28T04:44:27.371Z,62.04
2023-12-28T04:45:27.232Z,61.83
2023-12-28T04:46:27.016Z,63.02
2023-12-28T04:47:26.882Z,62.85
2023-12-28T04:48:26.937Z,65.98
2023-12-28T04:49:26.586Z,65.29
2023-12-28T04:50:26.351Z,64.60
2023-12-28T04:51:26.230Z,63.24
2023-12-28T04:52:26.010Z,64.59
2023-12-28T04:53:25.837Z,64.73
2023-12-28T04:54:25.678Z,61.53
2023-12-28T04:55:25.507Z,62.44
2023-12-28T04:56:25.315Z,63.49
2023-12-28T04:57:25.170Z,61.78
2023-12-28T04:58:24.999Z,63.75
2023-12-28T04:59:24.823Z,60.01
2023-12-28T05:00:24.669Z,61.70
2023-12-28T05:01:24.592Z,61.41
2023-12-28T05:02:24.312Z,62.32
2023-12-28T05:03:24.246Z,60.27
2023-12-28T05:04:24.065Z,61.75
2023-12-28T05:05:23.863Z,61.19
2023-12-28T05:06:23.758Z,61.41
2023-12-28T05:07:22.483Z,61.53
2023-12-28T05:08:23.316Z,61.71
2023-12-28T05:09:24.194Z,62.62
2023-12-28T05:10:21.980Z,61.62
2023-12-28T05:11:22.834Z,61.73
2023-12-28T05:12:22.812Z,61.65
2023-12-28T05:13:21.551Z,61.48
2023-12-28T05:14:22.296Z,62.15
2023-12-28T05:15:22.187Z,61.79
2023-12-28T05:16:21.981Z,61.75
2023-12-28T05:17:21.846Z,61.77
2023-12-28T05:18:21.790Z,62.68
2023-12-28T05:19:21.574Z,64.59
2023-12-28T05:20:21.346Z,62.10
2023-12-28T05:21:21.166Z,62.88
2023-12-28T05:22:21.002Z,63.06
2023-12-28T05:23:19.824Z,64.34
2023-12-28T05:24:19.716Z,63.55
2023-12-28T05:25:20.486Z,61.94
2023-12-28T05:26:20.307Z,63.03
2023-12-28T05:27:20.213Z,59.44
2023-12-28T05:28:20.016Z,62.14
2023-12-28T05:29:19.819Z,61.27
2023-12-28T05:30:19.814Z,60.33
2023-12-28T05:31:19.546Z,60.37
2023-12-28T05:32:20.362Z,60.50
2023-12-28T05:33:19.222Z,61.69
2023-12-28T05:34:19.068Z,61.78
2023-12-28T05:35:18.817Z,63.94
2023-12-28T05:36:18.667Z,61.48
2023-12-28T05:37:18.477Z,63.35
2023-12-28T05:38:18.346Z,63.40
2023-12-28T05:39:18.202Z,63.45
2023-12-28T05:40:17.985Z,61.90
2023-12-28T05:41:17.812Z,61.30
2023-12-28T05:42:17.691Z,61.70
2023-12-28T05:43:17.504Z,63.40
2023-12-28T05:44:17.307Z,63.63
2023-12-28T05:45:17.231Z,63.66
2023-12-28T05:46:16.975Z,62.50
2023-12-28T05:47:16.798Z,63.43
2023-12-28T05:48:16.856Z,63.67
2023-12-28T05:49:16.683Z,63.76
2023-12-28T05:50:16.338Z,61.03
2023-12-28T05:51:16.177Z,65.53
2023-12-28T05:52:16.043Z,63.09
2023-12-28T05:53:15.822Z,62.52
2023-12-28T05:54:15.705Z,63.62
2023-12-28T05:55:15.504Z,63.40
2023-12-28T05:56:15.339Z,64.65
2023-12-28T05:57:15.219Z,63.75
2023-12-28T05:58:15.004Z,61.56
2023-12-28T05:59:16.359Z,61.68
2023-12-28T06:00:15.808Z,61.72
2023-12-28T06:01:14.644Z,61.71
2023-12-28T06:02:14.340Z,62.13
2023-12-28T06:03:13.202Z,61.68
2023-12-28T06:04:14.166Z,62.13
2023-12-28T06:05:14.903Z,62.91
2023-12-28T06:06:13.692Z,65.50
2023-12-28T06:07:13.513Z,62.74
2023-12-28T06:08:13.364Z,64.02
2023-12-28T06:09:12.222Z,63.11
2023-12-28T06:10:13.071Z,63.14
2023-12-28T06:11:12.870Z,63.25
2023-12-28T06:12:12.701Z,63.83
2023-12-28T06:13:12.527Z,63.37
2023-12-28T06:14:12.372Z,62.34
2023-12-28T06:15:12.274Z,61.78
2023-12-28T06:16:12.186Z,60.95
2023-12-28T06:17:11.940Z,62.61
2023-12-28T06:18:11.849Z,61.44
2023-12-28T06:19:11.684Z,64.89
2023-12-28T06:20:10.485Z,64.34
2023-12-28T06:21:11.248Z,62.83
2023-12-28T06:22:11.053Z,64.97
2023-12-28T06:23:09.900Z,64.94
2023-12-28T06:24:10.706Z,64.58
2023-12-28T06:25:10.555Z,65.37
2023-12-28T06:26:09.379Z,64.93
2023-12-28T06:27:10.216Z,63.44
2023-12-28T06:28:10.088Z,63.29
2023-12-28T06:29:09.994Z,63.46
2023-12-28T06:30:10.135Z,63.36
2023-12-28T06:31:09.622Z,63.81
2023-12-28T06:32:09.376Z,62.01
2023-12-28T06:33:09.280Z,60.82
2023-12-28T06:34:09.507Z,62.83
2023-12-28T06:35:08.869Z,61.78
2023-12-28T06:36:08.716Z,61.83
2023-12-28T06:37:08.662Z,61.89
2023-12-28T06:38:08.365Z,62.65
2023-12-28T06:39:08.197Z,62.64
2023-12-28T06:40:08.056Z,62.57
2023-12-28T06:41:07.888Z,62.50
2023-12-28T06:42:06.726Z,62.54
2023-12-28T06:43:07.534Z,62.69
2023-12-28T06:44:07.376Z,61.95
2023-12-28T06:45:07.215Z,63.02
2023-12-28T06:46:06.048Z,62.55
2023-12-28T06:47:06.906Z,63.05
2023-12-28T06:48:05.790Z,61.45
2023-12-28T06:49:07.200Z,61.51
2023-12-28T06:50:06.611Z,61.89
2023-12-28T06:51:06.348Z,61.91
2023-12-28T06:52:06.212Z,63.12
2023-12-28T06:53:05.994Z,63.72
2023-12-28T06:54:05.834Z,63.43
2023-12-28T06:55:05.700Z,62.18
2023-12-28T06:56:05.532Z,61.34
2023-12-28T06:57:05.341Z,61.98
2023-12-28T06:58:05.309Z,64.23
2023-12-28T06:59:05.161Z,61.12
2023-12-28T07:00:05.296Z,64.70
2023-12-28T07:01:04.853Z,61.77
2023-12-28T07:02:05.452Z,60.11
2023-12-28T07:03:04.372Z,60.32
2023-12-28T07:04:04.230Z,60.71
2023-12-28T07:05:04.060Z,61.19
2023-12-28T07:06:02.831Z,60.30
2023-12-28T07:07:03.668Z,60.73
2023-12-28T07:08:03.503Z,61.99
2023-12-28T07:09:03.339Z,61.08
2023-12-28T07:10:03.152Z,62.96
2023-12-28T07:11:02.985Z,64.44
2023-12-28T07:12:02.824Z,63.05
2023-12-28T07:13:02.655Z,62.13
2023-12-28T07:14:02.515Z,63.50
2023-12-28T07:15:02.371Z,62.41
2023-12-28T07:16:02.408Z,60.99
2023-12-28T07:17:02.014Z,62.01
2023-12-28T07:18:02.150Z,62.93
2023-12-28T07:19:01.846Z,60.78
2023-12-28T07:20:01.577Z,62.64
2023-12-28T07:21:01.440Z,61.75
2023-12-28T07:22:01.242Z,62.13
2023-12-28T07:23:01.037Z,60.78
2023-12-28T07:24:00.868Z,60.83
2023-12-28T07:25:00.788Z,63.13
2023-12-28T07:26:00.543Z,63.65
2023-12-28T07:27:00.358Z,58.72
2023-12-28T07:28:00.429Z,60.98
2023-12-28T07:29:00.030Z,58.84
2023-12-28T07:29:59.863Z,60.64
2023-12-28T07:30:59.726Z,62.23
2023-12-28T07:31:59.512Z,59.50
2023-12-28T07:32:59.458Z,59.31
2023-12-28T07:33:59.337Z,60.19
2023-12-28T07:34:59.038Z,60.20
2023-12-28T07:35:58.885Z,59.14
2023-12-28T07:36:59.715Z,60.93
2023-12-28T07:37:58.802Z,59.33
2023-12-28T07:38:58.356Z,60.49
2023-12-28T07:39:58.199Z,61.44
2023-12-28T07:40:58.002Z,59.87
2023-12-28T07:41:57.841Z,61.16
2023-12-28T07:42:58.031Z,62.81
2023-12-28T07:43:57.510Z,59.57
2023-12-28T07:44:57.338Z,61.88
2023-12-28T07:45:57.269Z,57.30
2023-12-28T07:46:56.993Z,58.51
2023-12-28T07:47:57.211Z,61.43
2023-12-28T07:48:56.774Z,60.62
2023-12-28T07:49:56.546Z,58.21
2023-12-28T07:50:56.361Z,60.06
2023-12-28T07:51:55.233Z,60.57
2023-12-28T07:52:56.029Z,61.48
2023-12-28T07:53:55.860Z,59.11
2023-12-28T07:54:55.702Z,62.10
2023-12-28T07:55:55.519Z,59.51
2023-12-28T07:56:55.337Z,62.67
2023-12-28T07:57:55.275Z,59.95
2023-12-28T07:58:55.020Z,62.90
2023-12-28T07:59:54.870Z,59.82
2023-12-28T08:00:54.712Z,62.79
2023-12-28T08:01:54.529Z,59.04
2023-12-28T08:02:54.375Z,59.21
2023-12-28T08:03:54.301Z,59.36
2023-12-28T08:04:54.069Z,60.26
2023-12-28T08:05:53.907Z,59.64
2023-12-28T08:06:53.773Z,58.78
2023-12-28T08:07:53.547Z,62.14
2023-12-28T08:08:53.392Z,62.18
2023-12-28T08:09:53.272Z,60.38
2023-12-28T08:10:53.061Z,62.35
2023-12-28T08:11:52.950Z,60.77
2023-12-28T08:12:52.832Z,61.90
2023-12-28T08:13:52.634Z,62.32
2023-12-28T08:14:52.469Z,61.22
2023-12-28T08:15:52.473Z,62.01
2023-12-28T08:16:52.120Z,62.76
2023-12-28T08:17:52.033Z,61.21
2023-12-28T08:18:51.964Z,62.55
2023-12-28T08:19:50.911Z,61.91
2023-12-28T08:20:51.480Z,64.14
2023-12-28T08:21:51.503Z,64.21
2023-12-28T08:23:01.402Z,65.71
2023-12-28T08:23:50.971Z,62.94
2023-12-28T08:24:50.859Z,64.90
2023-12-28T08:25:50.650Z,65.71
2023-12-28T08:26:50.473Z,64.93
2023-12-28T08:27:50.384Z,64.40
2023-12-28T08:28:50.148Z,63.52
2023-12-28T08:29:49.984Z,61.68
2023-12-28T08:30:49.890Z,65.59
2023-12-28T08:31:49.739Z,62.55
2023-12-28T08:32:49.628Z,62.91
2023-12-28T08:33:49.385Z,62.08
2023-12-28T08:34:49.375Z,63.31
2023-12-28T08:35:48.998Z,60.54
2023-12-28T08:36:48.956Z,64.45
2023-12-28T08:37:48.627Z,63.74
2023-12-28T08:38:48.487Z,64.87
2023-12-28T08:39:48.334Z,60.92
2023-12-28T08:40:48.163Z,64.95
2023-12-28T08:41:47.995Z,63.90
2023-12-28T08:42:47.819Z,60.50
2023-12-28T08:43:47.636Z,61.22
2023-12-28T08:44:49.551Z,62.49
2023-12-28T08:45:47.334Z,61.77
2023-12-28T08:46:46.149Z,61.77
2023-12-28T08:47:46.978Z,61.86
2023-12-28T08:48:46.896Z,62.49
2023-12-28T08:49:45.702Z,61.91
2023-12-28T08:50:46.485Z,62.50
2023-12-28T08:51:46.382Z,63.24
2023-12-28T08:52:46.143Z,62.24
2023-12-28T08:53:45.994Z,62.02
2023-12-28T08:54:45.940Z,62.42
2023-12-28T08:55:45.679Z,63.26
2023-12-28T08:56:46.971Z,65.10
2023-12-28T08:57:45.400Z,61.90
2023-12-28T08:58:45.158Z,62.38
2023-12-28T08:59:44.997Z,63.18
2023-12-28T09:00:44.902Z,62.00
2023-12-28T09:01:44.785Z,62.32
2023-12-28T09:02:44.587Z,63.86
2023-12-28T09:03:44.496Z,64.30
2023-12-28T09:04:44.208Z,66.04
2023-12-28T09:05:44.015Z,65.13
2023-12-28T09:06:44.005Z,64.02
2023-12-28T09:07:43.654Z,64.65
2023-12-28T09:08:42.521Z,65.55
2023-12-28T09:09:43.453Z,63.18
2023-12-28T09:10:43.200Z,63.82
2023-12-28T09:11:43.076Z,63.89
2023-12-28T09:12:42.898Z,64.68
2023-12-28T09:13:42.673Z,64.70
2023-12-28T09:14:42.501Z,65.17
2023-12-28T09:15:42.368Z,63.93
2023-12-28T09:16:42.159Z,64.45
2023-12-28T09:17:43.117Z,65.67
2023-12-28T09:18:42.139Z,64.74
2023-12-28T09:19:40.845Z,65.21
2023-12-28T09:20:41.542Z,65.02
2023-12-28T09:21:41.436Z,64.52
2023-12-28T09:22:41.204Z,65.85
2023-12-28T09:23:41.037Z,64.94
2023-12-28T09:24:40.920Z,66.33
2023-12-28T09:25:40.713Z,66.54
2023-12-28T09:26:40.566Z,62.63
2023-12-28T09:27:40.583Z,63.95
2023-12-28T09:28:40.213Z,65.80
2023-12-28T09:29:40.091Z,66.49
2023-12-28T09:30:39.989Z,65.18
2023-12-28T09:31:39.910Z,65.15
2023-12-28T09:32:40.665Z,64.80
2023-12-28T09:33:39.504Z,65.19
2023-12-28T09:34:39.360Z,65.16
2023-12-28T09:35:39.072Z,63.43
2023-12-28T09:36:38.946Z,65.46
2023-12-28T09:37:38.751Z,65.93
2023-12-28T09:38:38.585Z,64.99
2023-12-28T09:39:38.471Z,63.76
2023-12-28T09:40:38.267Z,62.72
2023-12-28T09:41:38.092Z,64.92
2023-12-28T09:42:38.024Z,65.00
2023-12-28T09:43:37.799Z,65.13
2023-12-28T09:44:37.620Z,65.22
2023-12-28T09:45:37.501Z,65.15
2023-12-28T09:46:37.287Z,65.10
2023-12-28T09:47:37.113Z,66.07
2023-12-28T09:48:37.071Z,67.16
2023-12-28T09:49:36.853Z,63.97
2023-12-28T09:50:36.621Z,65.85
2023-12-28T09:51:36.547Z,64.92
2023-12-28T09:52:36.286Z,65.34
2023-12-28T09:53:36.124Z,66.60
2023-12-28T09:54:36.031Z,65.04
2023-12-28T09:55:35.793Z,65.97
2023-12-28T09:56:35.624Z,67.15
2023-12-28T09:57:35.592Z,62.86
2023-12-28T09:58:35.376Z,64.82
2023-12-28T09:59:35.137Z,63.13
2023-12-28T10:00:34.985Z,64.72
2023-12-28T10:01:34.847Z,64.43
2023-12-28T10:02:36.977Z,63.90
2023-12-28T10:03:34.516Z,64.52
2023-12-28T10:04:34.379Z,65.67
2023-12-28T10:05:34.191Z,65.68
2023-12-28T10:06:34.296Z,66.02
2023-12-28T10:07:32.779Z,65.98
2023-12-28T10:08:32.615Z,65.79
2023-12-28T10:09:33.482Z,67.89
2023-12-28T10:10:33.279Z,63.98
2023-12-28T10:11:33.111Z,67.40
2023-12-28T10:12:32.993Z,63.95
2023-12-28T10:13:31.789Z,64.78
2023-12-28T10:14:32.639Z,65.09
2023-12-28T10:15:32.470Z,67.89
2023-12-28T10:16:32.306Z,65.64
2023-12-28T10:17:32.131Z,67.50
2023-12-28T10:18:32.080Z,64.49
2023-12-28T10:19:32.916Z,67.85
2023-12-28T10:20:31.597Z,67.36
2023-12-28T10:21:31.438Z,65.73
2023-12-28T10:22:31.272Z,66.88
2023-12-28T10:23:31.099Z,65.21
2023-12-28T10:24:30.979Z,64.47
2023-12-28T10:25:30.872Z,65.83
2023-12-28T10:26:30.651Z,64.23
2023-12-28T10:27:30.458Z,66.29
2023-12-28T10:28:30.272Z,62.93
2023-12-28T10:29:30.081Z,64.52
2023-12-28T10:30:29.999Z,64.71
2023-12-28T10:31:29.911Z,65.16
2023-12-28T10:32:29.679Z,63.86
2023-12-28T10:33:29.543Z,63.92
2023-12-28T10:34:29.327Z,62.16
2023-12-28T10:35:29.105Z,66.01
2023-12-28T10:36:28.983Z,65.71
2023-12-28T10:37:28.720Z,65.94
2023-12-28T10:38:28.583Z,65.27
2023-12-28T10:39:28.510Z,63.59
2023-12-28T10:40:28.300Z,66.01
2023-12-28T10:41:28.046Z,67.24
2023-12-28T10:42:27.898Z,65.24
2023-12-28T10:43:27.709Z,64.59
2023-12-28T10:44:27.548Z,63.82
2023-12-28T10:45:27.488Z,66.34
2023-12-28T10:46:26.274Z,65.41
2023-12-28T10:47:27.077Z,64.47
2023-12-28T10:48:27.012Z,66.52
2023-12-28T10:49:27.523Z,65.00
2023-12-28T10:50:26.636Z,62.96
2023-12-28T10:51:26.433Z,63.41
2023-12-28T10:52:26.231Z,65.06
2023-12-28T10:53:26.059Z,65.12
2023-12-28T10:54:24.967Z,65.14
2023-12-28T10:55:25.761Z,65.51
2023-12-28T10:56:25.566Z,64.89
2023-12-28T10:57:25.431Z,65.79
2023-12-28T10:58:25.245Z,66.11
2023-12-28T10:59:25.076Z,67.05
2023-12-28T11:00:24.966Z,66.67
2023-12-28T11:01:24.845Z,64.63
2023-12-28T11:02:24.605Z,65.73
2023-12-28T11:03:24.450Z,65.39
2023-12-28T11:04:24.370Z,66.87
2023-12-28T11:05:24.358Z,65.15
2023-12-28T11:06:23.971Z,63.40
2023-12-28T11:07:23.803Z,66.41
2023-12-28T11:08:22.610Z,66.50
2023-12-28T11:09:23.517Z,66.51
2023-12-28T11:10:23.279Z,66.70
2023-12-28T11:11:23.118Z,67.11
2023-12-28T11:12:22.964Z,66.76
2023-12-28T11:13:21.797Z,69.85
2023-12-28T11:14:22.631Z,68.04
2023-12-28T11:15:22.592Z,68.14
2023-12-28T11:16:22.286Z,68.37
2023-12-28T11:17:22.201Z,68.30
2023-12-28T11:18:22.218Z,68.72
2023-12-28T11:19:21.928Z,68.84
2023-12-28T11:20:21.636Z,65.83
2023-12-28T11:21:21.517Z,65.00
2023-12-28T11:22:21.306Z,64.05
2023-12-28T11:23:21.157Z,66.49
2023-12-28T11:24:21.059Z,68.21
2023-12-28T11:25:20.845Z,68.26
2023-12-28T11:26:20.678Z,68.01
2023-12-28T11:27:20.573Z,66.21
2023-12-28T11:28:20.323Z,66.86
2023-12-28T11:29:20.168Z,67.53
2023-12-28T11:30:20.113Z,67.37
2023-12-28T11:31:19.878Z,68.77
2023-12-28T11:32:19.677Z,65.40
2023-12-28T11:33:19.593Z,66.65
2023-12-28T11:34:19.524Z,66.90
2023-12-28T11:35:19.224Z,65.96
2023-12-28T11:36:18.999Z,65.23
2023-12-28T11:37:18.848Z,68.96
2023-12-28T11:38:18.669Z,65.63
2023-12-28T11:39:18.532Z,65.88
2023-12-28T11:40:18.364Z,68.26
2023-12-28T11:41:18.161Z,67.54
2023-12-28T11:42:18.038Z,64.14
2023-12-28T11:43:17.833Z,68.22
2023-12-28T11:44:17.660Z,64.63
2023-12-28T11:45:17.497Z,67.67
2023-12-28T11:46:16.330Z,67.88
2023-12-28T11:47:17.188Z,67.61
2023-12-28T11:48:17.069Z,67.65
2023-12-28T11:49:16.916Z,65.58
2023-12-28T11:50:16.722Z,66.43
2023-12-28T11:51:16.585Z,67.08
2023-12-28T11:52:16.356Z,66.66
2023-12-28T11:53:16.189Z,66.05
2023-12-28T11:54:16.015Z,68.50
2023-12-28T11:55:15.863Z,67.77
2023-12-28T11:56:15.681Z,68.35
2023-12-28T11:57:15.522Z,68.31
2023-12-28T11:58:15.815Z,65.21
2023-12-28T11:59:15.151Z,67.70
2023-12-28T12:00:15.048Z,66.82
2023-12-28T12:01:14.922Z,65.76
2023-12-28T12:02:14.666Z,67.10
2023-12-28T12:03:14.495Z,69.37
2023-12-28T12:04:14.441Z,68.79
2023-12-28T12:05:14.169Z,65.81
2023-12-28T12:06:14.180Z,67.38
2023-12-28T12:07:13.975Z,64.53
2023-12-28T12:08:13.640Z,67.74
2023-12-28T12:09:13.475Z,67.78
2023-12-28T12:10:13.322Z,68.11
2023-12-28T12:11:13.150Z,67.20
2023-12-28T12:12:13.002Z,67.80
2023-12-28T12:13:12.891Z,67.12
2023-12-28T12:14:12.647Z,69.73
2023-12-28T12:15:12.501Z,67.85
2023-12-28T12:16:12.362Z,66.73
2023-12-28T12:17:12.141Z,65.43
2023-12-28T12:18:12.030Z,67.00
2023-12-28T12:19:11.896Z,67.71
2023-12-28T12:20:11.640Z,67.83
2023-12-28T12:21:11.470Z,67.85
2023-12-28T12:22:10.319Z,68.58
2023-12-28T12:23:11.110Z,70.34
2023-12-28T12:24:10.935Z,66.79
2023-12-28T12:25:10.803Z,68.30
2023-12-28T12:26:11.657Z,69.09
2023-12-28T12:27:10.450Z,68.93
2023-12-28T12:28:10.328Z,69.05
2023-12-28T12:29:10.104Z,69.11
2023-12-28T12:30:10.055Z,69.21
2023-12-28T12:31:09.862Z,69.75
2023-12-28T12:32:09.610Z,70.57
2023-12-28T12:33:09.574Z,70.21
2023-12-28T12:34:09.462Z,67.92
2023-12-28T12:35:09.206Z,67.71
2023-12-28T12:36:08.969Z,67.94
2023-12-28T12:37:08.879Z,68.70
2023-12-28T12:38:08.641Z,69.33
2023-12-28T12:39:08.462Z,66.46
2023-12-28T12:40:08.770Z,66.53
2023-12-28T12:41:08.117Z,68.05
2023-12-28T12:42:07.941Z,65.98
2023-12-28T12:43:07.796Z,66.13
2023-12-28T12:44:07.588Z,66.52
2023-12-28T12:45:07.468Z,66.91
2023-12-28T12:46:07.401Z,66.66
2023-12-28T12:47:06.091Z,67.73
2023-12-28T12:48:07.019Z,67.60
2023-12-28T12:49:06.867Z,70.81
2023-12-28T12:50:06.581Z,67.91
2023-12-28T12:51:06.386Z,69.81
2023-12-28T12:52:06.302Z,68.50
2023-12-28T12:53:06.029Z,67.21
2023-12-28T12:54:05.900Z,67.56
2023-12-28T12:55:05.772Z,67.00
2023-12-28T12:56:04.545Z,66.30
2023-12-28T12:57:05.353Z,70.70
2023-12-28T12:58:05.237Z,68.63
2023-12-28T12:59:05.017Z,68.35
2023-12-28T13:00:04.850Z,69.04
2023-12-28T13:01:04.843Z,68.47
2023-12-28T13:02:04.518Z,68.95
2023-12-28T13:03:04.346Z,67.80
2023-12-28T13:04:04.287Z,68.79
2023-12-28T13:05:04.157Z,69.59
2023-12-28T13:06:03.938Z,70.62
2023-12-28T13:07:03.799Z,70.03
2023-12-28T13:08:03.501Z,69.71
2023-12-28T13:09:03.342Z,68.53
2023-12-28T13:10:03.272Z,67.45
2023-12-28T13:11:02.979Z,68.00
2023-12-28T13:12:02.809Z,69.36
2023-12-28T13:13:03.271Z,69.42
2023-12-28T13:14:02.480Z,69.42
2023-12-28T13:15:02.332Z,69.48
2023-12-28T13:16:02.182Z,69.90
2023-12-28T13:17:01.976Z,69.79
2023-12-28T13:18:01.898Z,68.96
2023-12-28T13:19:01.719Z,71.90
2023-12-28T13:20:01.586Z,70.34
2023-12-28T13:21:01.275Z,69.95
2023-12-28T13:22:01.244Z,70.00
2023-12-28T13:23:02.977Z,69.15
2023-12-28T13:24:00.927Z,69.16
2023-12-28T13:25:00.771Z,69.44
2023-12-28T13:26:00.461Z,70.58
2023-12-28T13:27:00.315Z,69.90
2023-12-28T13:28:00.271Z,70.31
2023-12-28T13:29:00.266Z,68.47
2023-12-28T13:29:59.814Z,69.88
2023-12-28T13:30:59.679Z,67.94
2023-12-28T13:31:59.982Z,69.97
2023-12-28T13:32:59.812Z,66.94
2023-12-28T13:33:59.292Z,69.30
2023-12-28T13:35:02.870Z,69.92
2023-12-28T13:35:58.806Z,69.97
2023-12-28T13:36:58.723Z,70.10
2023-12-28T13:37:58.492Z,70.01
2023-12-28T13:38:58.296Z,69.54